DLH96F EGPH-EDDF
Flight info
| Callsign | DLH96F |
|---|---|
| Flight time | N/A |
| Altitude | 37000 |
| Route | TLA Y96 HAVEN DCT OTBUN DCT AGPED DCT GODOS DCT AMGOD DCT SOGPO DCT DIXAT DIXAT1A |
| Aircraft | A320/M-SDE3FGHIRWY/LB1 |
Departure
| Time | 2026-05-04 09:04 |
|---|---|
| Airport | Edinburgh Airport (EGPH) |
Arrival
| Time | N/A |
|---|---|
| Airport | Frankfurt Main Airport (EDDF) |
| Time | Latitude | Longitude | Altitude | Speed | Heading |
|---|---|---|---|---|---|
| 2026-05-04 08:40 | 55.94801 | -3.36627 | 117 ft | 0 kts | 89° |
| 2026-05-04 08:46 | 55.94801 | -3.36628 | 116 ft | 0 kts | 89° |
| 2026-05-04 08:54 | 55.94781 | -3.36771 | 112 ft | 4 kts | 19° |
| 2026-05-04 08:55 | 55.94770 | -3.36774 | 113 ft | 1 kts | 356° |
| 2026-05-04 08:55 | 55.94769 | -3.36774 | 113 ft | 0 kts | 356° |
| 2026-05-04 08:57 | 55.94804 | -3.36777 | 114 ft | 10 kts | 357° |
| 2026-05-04 09:01 | 55.95414 | -3.35454 | 114 ft | 3 kts | 59° |
| 2026-05-04 09:01 | 55.95424 | -3.35425 | 113 ft | 3 kts | 57° |
| 2026-05-04 09:01 | 55.95458 | -3.35405 | 113 ft | 5 kts | 345° |
| 2026-05-04 09:01 | 55.95495 | -3.35439 | 113 ft | 10 kts | 325° |
| 2026-05-04 09:02 | 55.95555 | -3.35561 | 113 ft | 6 kts | 287° |
| 2026-05-04 09:02 | 55.95547 | -3.35630 | 113 ft | 4 kts | 244° |
| 2026-05-04 09:02 | 55.95542 | -3.35644 | 111 ft | 1 kts | 242° |
| 2026-05-04 09:02 | 55.95542 | -3.35645 | 111 ft | 0 kts | 241° |
| 2026-05-04 09:03 | 55.95528 | -3.35690 | 113 ft | 17 kts | 240° |
| 2026-05-04 09:03 | 55.95328 | -3.36286 | 110 ft | 91 kts | 239° |
| 2026-05-04 09:03 | 55.94897 | -3.37555 | 112 ft | 146 kts | 238° |
| 2026-05-04 09:03 | 55.94342 | -3.39246 | 558 ft | 157 kts | 240° |
| 2026-05-04 09:04 | 55.93772 | -3.40880 | 1423 ft | 156 kts | 239° |
| 2026-05-04 09:04 | 55.93171 | -3.42612 | 1899 ft | 174 kts | 240° |
| 2026-05-04 09:04 | 55.92495 | -3.44562 | 2197 ft | 196 kts | 240° |
| 2026-05-04 09:04 | 55.91739 | -3.46735 | 2572 ft | 218 kts | 239° |
| 2026-05-04 09:05 | 55.90897 | -3.49173 | 3082 ft | 240 kts | 239° |
| 2026-05-04 09:05 | 55.90009 | -3.51757 | 3906 ft | 248 kts | 239° |
| 2026-05-04 09:05 | 55.88801 | -3.54006 | 4776 ft | 258 kts | 215° |
| 2026-05-04 09:05 | 55.87093 | -3.55098 | 5609 ft | 270 kts | 188° |
| 2026-05-04 09:06 | 55.85189 | -3.54858 | 5925 ft | 277 kts | 171° |
| 2026-05-04 09:07 | 55.72885 | -3.44159 | 10392 ft | 307 kts | 137° |
| 2026-05-04 09:08 | 55.71276 | -3.41452 | 10623 ft | 330 kts | 137° |
| 2026-05-04 09:08 | 55.69549 | -3.38551 | 10826 ft | 353 kts | 137° |
| 2026-05-04 09:08 | 55.67735 | -3.35504 | 11316 ft | 363 kts | 137° |
| 2026-05-04 09:08 | 55.65882 | -3.32401 | 11978 ft | 368 kts | 137° |
| 2026-05-04 09:09 | 55.64012 | -3.29273 | 12673 ft | 372 kts | 137° |
| 2026-05-04 09:09 | 55.62121 | -3.26118 | 13365 ft | 376 kts | 137° |
| 2026-05-04 09:09 | 55.60208 | -3.22931 | 14030 ft | 380 kts | 137° |
| 2026-05-04 09:09 | 55.58274 | -3.19715 | 14653 ft | 383 kts | 137° |
| 2026-05-04 09:10 | 55.56322 | -3.16478 | 15278 ft | 386 kts | 137° |
| 2026-05-04 09:10 | 55.54377 | -3.13265 | 15867 ft | 389 kts | 138° |
| 2026-05-04 09:10 | 55.52388 | -3.09988 | 16458 ft | 392 kts | 137° |
| 2026-05-04 09:10 | 55.50385 | -3.06687 | 17046 ft | 395 kts | 137° |
| 2026-05-04 09:11 | 55.48366 | -3.03357 | 17634 ft | 398 kts | 137° |
| 2026-05-04 09:11 | 55.46437 | -2.99817 | 18209 ft | 402 kts | 129° |
| 2026-05-04 09:11 | 55.44861 | -2.95730 | 18700 ft | 405 kts | 119° |
| 2026-05-04 09:11 | 55.43490 | -2.91370 | 19197 ft | 408 kts | 118° |
| 2026-05-04 09:12 | 55.42101 | -2.86985 | 19693 ft | 410 kts | 118° |
| 2026-05-04 09:12 | 55.40698 | -2.82587 | 20189 ft | 413 kts | 118° |
| 2026-05-04 09:14 | 55.30596 | -2.51179 | 23471 ft | 431 kts | 118° |
| 2026-05-04 09:14 | 55.29109 | -2.46580 | 23856 ft | 434 kts | 118° |
| 2026-05-04 09:14 | 55.27614 | -2.41963 | 24234 ft | 436 kts | 118° |
| 2026-05-04 09:14 | 55.26112 | -2.37333 | 24589 ft | 438 kts | 118° |
| 2026-05-04 09:15 | 55.24600 | -2.32690 | 24945 ft | 439 kts | 118° |
| 2026-05-04 09:15 | 55.23078 | -2.28025 | 25302 ft | 441 kts | 118° |
| 2026-05-04 09:15 | 55.21568 | -2.23407 | 25659 ft | 443 kts | 118° |
| 2026-05-04 09:15 | 55.20031 | -2.18715 | 26019 ft | 445 kts | 117° |
| 2026-05-04 09:17 | 55.07604 | -1.80428 | 28668 ft | 459 kts | 115° |
| 2026-05-04 09:18 | 55.06090 | -1.75502 | 28965 ft | 461 kts | 115° |
| 2026-05-04 09:18 | 55.04568 | -1.70564 | 29257 ft | 463 kts | 115° |
| 2026-05-04 09:18 | 55.03032 | -1.65624 | 29550 ft | 464 kts | 115° |
| 2026-05-04 09:18 | 55.01501 | -1.60747 | 29921 ft | 464 kts | 115° |
| 2026-05-04 09:19 | 54.99949 | -1.55832 | 30318 ft | 462 kts | 115° |
| 2026-05-04 09:19 | 54.98398 | -1.50938 | 30682 ft | 461 kts | 116° |
| 2026-05-04 09:19 | 54.96845 | -1.46061 | 31037 ft | 459 kts | 116° |
| 2026-05-04 09:19 | 54.95292 | -1.41200 | 31393 ft | 458 kts | 116° |
| 2026-05-04 09:20 | 54.93745 | -1.36374 | 31758 ft | 457 kts | 116° |
| 2026-05-04 09:20 | 54.92200 | -1.31559 | 32108 ft | 455 kts | 115° |
| 2026-05-04 09:20 | 54.90661 | -1.26760 | 32470 ft | 454 kts | 115° |
| 2026-05-04 09:20 | 54.89130 | -1.21975 | 32826 ft | 452 kts | 115° |
| 2026-05-04 09:21 | 54.87598 | -1.17180 | 33193 ft | 451 kts | 115° |
| 2026-05-04 09:21 | 54.86104 | -1.12509 | 33547 ft | 449 kts | 115° |
| 2026-05-04 09:21 | 54.84586 | -1.07780 | 33898 ft | 448 kts | 115° |
| 2026-05-04 09:21 | 54.83065 | -1.03067 | 34225 ft | 446 kts | 116° |
| 2026-05-04 09:22 | 54.81543 | -0.98377 | 34497 ft | 446 kts | 116° |
| 2026-05-04 09:22 | 54.80016 | -0.93688 | 34748 ft | 446 kts | 116° |
| 2026-05-04 09:22 | 54.78491 | -0.89006 | 34986 ft | 446 kts | 116° |
| 2026-05-04 09:22 | 54.76968 | -0.84328 | 35210 ft | 446 kts | 116° |
| 2026-05-04 09:23 | 54.75440 | -0.79635 | 35442 ft | 446 kts | 117° |
| 2026-05-04 09:23 | 54.73913 | -0.74948 | 35662 ft | 447 kts | 117° |
| 2026-05-04 09:23 | 54.72385 | -0.70273 | 35864 ft | 447 kts | 117° |
| 2026-05-04 09:23 | 54.70869 | -0.65658 | 36056 ft | 447 kts | 117° |
| 2026-05-04 09:25 | 54.60026 | -0.32849 | 37081 ft | 452 kts | 119° |
| 2026-05-04 09:25 | 54.58458 | -0.28147 | 37082 ft | 452 kts | 119° |
| 2026-05-04 09:26 | 54.55316 | -0.18759 | 37080 ft | 452 kts | 119° |
| 2026-05-04 09:26 | 54.52167 | -0.09357 | 37082 ft | 453 kts | 119° |
| 2026-05-04 09:27 | 54.49008 | 0.00041 | 37084 ft | 453 kts | 119° |
| 2026-05-04 09:27 | 54.45857 | 0.09348 | 37075 ft | 453 kts | 119° |
| 2026-05-04 09:28 | 54.42677 | 0.18719 | 37075 ft | 454 kts | 120° |
| 2026-05-04 09:28 | 54.39483 | 0.28097 | 37078 ft | 454 kts | 120° |
| 2026-05-04 09:29 | 54.36304 | 0.37399 | 37074 ft | 455 kts | 120° |
| 2026-05-04 09:29 | 54.33094 | 0.46765 | 37076 ft | 455 kts | 120° |
| 2026-05-04 09:30 | 54.29869 | 0.56115 | 37076 ft | 456 kts | 120° |
| 2026-05-04 09:30 | 54.26633 | 0.65460 | 37074 ft | 457 kts | 120° |
| 2026-05-04 09:31 | 54.23390 | 0.74808 | 37076 ft | 457 kts | 121° |
| 2026-05-04 09:31 | 54.20144 | 0.84152 | 37074 ft | 457 kts | 121° |
| 2026-05-04 09:32 | 54.16870 | 0.93481 | 37068 ft | 458 kts | 121° |
| 2026-05-04 09:34 | 54.03742 | 1.30686 | 37076 ft | 459 kts | 122° |
| 2026-05-04 09:34 | 54.00436 | 1.39969 | 37075 ft | 459 kts | 122° |
| 2026-05-04 09:35 | 53.97116 | 1.49240 | 37076 ft | 459 kts | 122° |
| 2026-05-04 09:35 | 53.93796 | 1.58491 | 37082 ft | 459 kts | 122° |
| 2026-05-04 09:37 | 53.80438 | 1.95342 | 37072 ft | 458 kts | 123° |
| 2026-05-04 09:38 | 53.77105 | 2.04452 | 37062 ft | 458 kts | 123° |
| 2026-05-04 09:38 | 53.73738 | 2.13614 | 37062 ft | 458 kts | 123° |
| 2026-05-04 09:39 | 53.70364 | 2.22767 | 37057 ft | 459 kts | 123° |
| 2026-05-04 09:39 | 53.66986 | 2.31904 | 37047 ft | 458 kts | 123° |
| 2026-05-04 09:40 | 53.63623 | 2.40961 | 37041 ft | 458 kts | 124° |
| 2026-05-04 09:40 | 53.60227 | 2.50053 | 37039 ft | 458 kts | 124° |
| 2026-05-04 09:42 | 53.47182 | 2.84811 | 37033 ft | 459 kts | 124° |
| 2026-05-04 09:43 | 53.43187 | 2.95314 | 37036 ft | 459 kts | 124° |
| 2026-05-04 09:43 | 53.40330 | 3.02801 | 37035 ft | 459 kts | 124° |
| 2026-05-04 09:44 | 53.36899 | 3.11815 | 37036 ft | 459 kts | 124° |
| 2026-05-04 09:46 | 53.21817 | 3.45766 | 37025 ft | 450 kts | 150° |
| 2026-05-04 09:46 | 53.16404 | 3.50929 | 37023 ft | 448 kts | 153° |
| 2026-05-04 09:47 | 53.10961 | 3.56021 | 37018 ft | 448 kts | 153° |
| 2026-05-04 09:49 | 52.93964 | 3.78035 | 37008 ft | 458 kts | 124° |
| 2026-05-04 09:49 | 52.92289 | 3.82538 | 37008 ft | 458 kts | 124° |
| 2026-05-04 09:51 | 52.80411 | 4.13910 | 37005 ft | 460 kts | 125° |
| 2026-05-04 09:51 | 52.76996 | 4.22871 | 37005 ft | 461 kts | 125° |
| 2026-05-04 09:52 | 52.73586 | 4.31774 | 37001 ft | 462 kts | 126° |
| 2026-05-04 09:52 | 52.70150 | 4.40737 | 36997 ft | 462 kts | 126° |
| 2026-05-04 09:53 | 52.66702 | 4.49703 | 36995 ft | 463 kts | 126° |
| 2026-05-04 09:53 | 52.63239 | 4.58665 | 36993 ft | 463 kts | 126° |
| 2026-05-04 09:54 | 52.59768 | 4.67601 | 36988 ft | 463 kts | 126° |
| 2026-05-04 09:54 | 52.56312 | 4.76474 | 36987 ft | 464 kts | 126° |
| 2026-05-04 09:55 | 52.52816 | 4.85423 | 36990 ft | 464 kts | 127° |
| 2026-05-04 09:55 | 52.49320 | 4.94345 | 36989 ft | 464 kts | 127° |
| 2026-05-04 09:56 | 52.45823 | 5.03233 | 36988 ft | 464 kts | 127° |
| 2026-05-04 09:56 | 52.42334 | 5.12063 | 36991 ft | 464 kts | 127° |
| 2026-05-04 09:57 | 52.38811 | 5.20963 | 36997 ft | 464 kts | 127° |
| 2026-05-04 09:57 | 52.35297 | 5.29813 | 37000 ft | 463 kts | 128° |
| 2026-05-04 09:58 | 52.31771 | 5.38638 | 37004 ft | 463 kts | 128° |
| 2026-05-04 09:58 | 52.28270 | 5.47382 | 37003 ft | 462 kts | 128° |
| 2026-05-04 10:00 | 52.14171 | 5.82304 | 37000 ft | 459 kts | 129° |
| 2026-05-04 10:04 | 51.86908 | 6.37914 | 36993 ft | 443 kts | 147° |
| 2026-05-04 10:04 | 51.82107 | 6.44173 | 36987 ft | 443 kts | 147° |
| 2026-05-04 10:05 | 51.77293 | 6.50420 | 36997 ft | 443 kts | 147° |
| 2026-05-04 10:05 | 51.72478 | 6.56654 | 36980 ft | 443 kts | 147° |
| 2026-05-04 10:06 | 51.67664 | 6.62892 | 36983 ft | 444 kts | 147° |
| 2026-05-04 10:06 | 51.62846 | 6.69111 | 36970 ft | 444 kts | 147° |
| 2026-05-04 10:08 | 51.45980 | 6.90711 | 36994 ft | 444 kts | 147° |
| 2026-05-04 10:08 | 51.41156 | 6.96870 | 36995 ft | 443 kts | 147° |
| 2026-05-04 10:09 | 51.36317 | 7.03005 | 36314 ft | 447 kts | 147° |
| 2026-05-04 10:09 | 51.33856 | 7.06107 | 35336 ft | 453 kts | 147° |
| 2026-05-04 10:09 | 51.31369 | 7.09240 | 34482 ft | 457 kts | 147° |
| 2026-05-04 10:10 | 51.28896 | 7.12361 | 33635 ft | 459 kts | 147° |
| 2026-05-04 10:10 | 51.26277 | 7.15351 | 32661 ft | 456 kts | 154° |
| 2026-05-04 10:10 | 51.23518 | 7.17682 | 31701 ft | 455 kts | 159° |
| 2026-05-04 10:10 | 51.20672 | 7.19931 | 30708 ft | 458 kts | 159° |
| 2026-05-04 10:11 | 51.17801 | 7.22189 | 29654 ft | 462 kts | 159° |
| 2026-05-04 10:11 | 51.14913 | 7.24463 | 28729 ft | 461 kts | 159° |
| 2026-05-04 10:11 | 51.12045 | 7.26726 | 27800 ft | 459 kts | 158° |
| 2026-05-04 10:11 | 51.09197 | 7.29002 | 27023 ft | 456 kts | 158° |
| 2026-05-04 10:12 | 51.06388 | 7.31306 | 26277 ft | 451 kts | 157° |
| 2026-05-04 10:12 | 51.03623 | 7.33612 | 25498 ft | 446 kts | 156° |
| 2026-05-04 10:12 | 51.00887 | 7.35903 | 24868 ft | 440 kts | 156° |
| 2026-05-04 10:12 | 50.98181 | 7.38163 | 24143 ft | 436 kts | 156° |
| 2026-05-04 10:13 | 50.95537 | 7.40357 | 23441 ft | 433 kts | 156° |
| 2026-05-04 10:13 | 50.92878 | 7.42539 | 22785 ft | 427 kts | 156° |
| 2026-05-04 10:13 | 50.90252 | 7.44683 | 22172 ft | 421 kts | 156° |
| 2026-05-04 10:13 | 50.87669 | 7.46796 | 21614 ft | 415 kts | 156° |
| 2026-05-04 10:14 | 50.85128 | 7.48874 | 21084 ft | 408 kts | 156° |
| 2026-05-04 10:14 | 50.82618 | 7.50921 | 20568 ft | 402 kts | 156° |
| 2026-05-04 10:16 | 50.65966 | 7.64447 | 17223 ft | 372 kts | 156° |
| 2026-05-04 10:16 | 50.63671 | 7.66305 | 16773 ft | 369 kts | 156° |
| 2026-05-04 10:16 | 50.61423 | 7.68125 | 16331 ft | 367 kts | 156° |
| 2026-05-04 10:16 | 50.59133 | 7.69975 | 15976 ft | 365 kts | 156° |
| 2026-05-04 10:17 | 50.56908 | 7.71767 | 15750 ft | 364 kts | 156° |
| 2026-05-04 10:17 | 50.54657 | 7.73578 | 15488 ft | 361 kts | 156° |
| 2026-05-04 10:19 | 50.41257 | 7.89491 | 12546 ft | 363 kts | 110° |
| 2026-05-04 10:19 | 50.40507 | 7.93265 | 12280 ft | 362 kts | 110° |
| 2026-05-04 10:19 | 50.39773 | 7.97029 | 12020 ft | 360 kts | 110° |
| 2026-05-04 10:19 | 50.39047 | 8.00779 | 11772 ft | 359 kts | 110° |
| 2026-05-04 10:20 | 50.38320 | 8.04516 | 11518 ft | 358 kts | 110° |
| 2026-05-04 10:20 | 50.37589 | 8.08237 | 11263 ft | 357 kts | 110° |
| 2026-05-04 10:20 | 50.36853 | 8.11955 | 11009 ft | 360 kts | 110° |
| 2026-05-04 10:20 | 50.36081 | 8.15816 | 10769 ft | 382 kts | 110° |
| 2026-05-04 10:21 | 50.35280 | 8.19815 | 10522 ft | 387 kts | 110° |
| 2026-05-04 10:21 | 50.34474 | 8.23850 | 10279 ft | 388 kts | 110° |
| 2026-05-04 10:21 | 50.33673 | 8.27871 | 10039 ft | 387 kts | 110° |
| 2026-05-04 10:21 | 50.32875 | 8.31877 | 9879 ft | 385 kts | 110° |
| 2026-05-04 10:22 | 50.31290 | 8.39803 | 9610 ft | 382 kts | 110° |
| 2026-05-04 10:22 | 50.30503 | 8.43735 | 9467 ft | 363 kts | 110° |
| 2026-05-04 10:22 | 50.29771 | 8.47380 | 9336 ft | 356 kts | 110° |
| 2026-05-04 10:23 | 50.28991 | 8.51215 | 9204 ft | 380 kts | 110° |
| 2026-05-04 10:23 | 50.28178 | 8.55205 | 9071 ft | 389 kts | 110° |
| 2026-05-04 10:25 | 50.23234 | 8.79490 | 8158 ft | 291 kts | 111° |
| 2026-05-04 10:25 | 50.22624 | 8.82472 | 8025 ft | 287 kts | 111° |
| 2026-05-04 10:25 | 50.22023 | 8.85437 | 7900 ft | 286 kts | 111° |
| 2026-05-04 10:25 | 50.21427 | 8.88398 | 7766 ft | 286 kts | 111° |
| 2026-05-04 10:26 | 50.20828 | 8.91363 | 7647 ft | 285 kts | 111° |
| 2026-05-04 10:26 | 50.20232 | 8.94304 | 7505 ft | 281 kts | 111° |
| 2026-05-04 10:26 | 50.19685 | 8.97173 | 7392 ft | 271 kts | 108° |
| 2026-05-04 10:26 | 50.18988 | 8.99801 | 7260 ft | 255 kts | 131° |
| 2026-05-04 10:27 | 50.17661 | 9.01424 | 7045 ft | 240 kts | 166° |
| 2026-05-04 10:27 | 50.16095 | 9.01361 | 6961 ft | 222 kts | 206° |
| 2026-05-04 10:27 | 50.15291 | 9.00439 | 6877 ft | 217 kts | 231° |
| 2026-05-04 10:27 | 50.14804 | 8.98227 | 6641 ft | 223 kts | 265° |
| 2026-05-04 10:28 | 50.14529 | 8.95124 | 6266 ft | 213 kts | 246° |